Time;durP1;ratioP1;P1;durP2;ratioP2;P2;SDS_P1;SDS_P2;PMS_P1;PMS_P2;Temp;Humidity;BMP_temperature;BMP_pressure;BME280_temperature;BME280_humidity;BME280_pressure;Samples;Min_cycle;Max_cycle;Signal;HPM_P1;HPM_P2
2021/10/28 00:12:19;;;;;;;1.93;1.87;;;6.40;98.00;;;;;;5075244;28;20519;-66
2021/10/28 00:14:48;;;;;;;2.80;1.20;;;6.20;98.00;;;;;;5111985;28;20450;-66
2021/10/28 00:17:24;;;;;;;1.63;1.40;;;6.20;98.00;;;;;;5112104;28;20516;-66
2021/10/28 00:19:51;;;;;;;1.90;1.30;;;6.30;98.00;;;;;;5112221;28;20942;-66
2021/10/28 00:22:22;;;;;;;1.93;1.63;;;6.30;98.00;;;;;;5112125;28;20483;-66
2021/10/28 00:24:49;;;;;;;1.67;1.30;;;6.30;98.00;;;;;;5112072;28;20490;-66
2021/10/28 00:27:17;;;;;;;1.20;1.00;;;6.30;98.00;;;;;;5111945;28;20439;-66
2021/10/28 00:29:44;;;;;;;1.40;1.17;;;6.10;98.00;;;;;;5112099;28;20903;-66
2021/10/28 00:32:11;;;;;;;1.20;1.00;;;6.00;98.00;;;;;;5111982;28;20463;-67
2021/10/28 00:34:41;;;;;;;1.33;1.20;;;5.90;98.00;;;;;;5112104;28;20624;-66
2021/10/28 00:37:08;;;;;;;1.30;1.23;;;5.90;98.00;;;;;;5112132;28;20462;-67
2021/10/28 00:39:35;;;;;;;2.60;1.27;;;6.00;98.00;;;;;;5112207;28;20447;-66
2021/10/28 00:42:03;;;;;;;1.77;1.20;;;6.00;98.00;;;;;;5112128;28;20889;-67
2021/10/28 00:44:30;;;;;;;3.40;1.60;;;6.00;98.00;;;;;;5112002;28;20462;-66
2021/10/28 00:46:57;;;;;;;1.30;1.30;;;6.20;98.00;;;;;;5112189;28;20505;-66
2021/10/28 00:49:24;;;;;;;1.50;1.30;;;6.10;98.00;;;;;;5110792;28;20485;-66
2021/10/28 00:51:53;;;;;;;1.30;1.23;;;6.00;98.00;;;;;;5112068;28;20457;-67
2021/10/28 00:54:22;;;;;;;1.70;1.57;;;5.90;98.00;;;;;;5112264;28;21006;-67
2021/10/28 00:56:50;;;;;;;1.20;1.10;;;6.00;98.00;;;;;;5110764;28;20478;-66
2021/10/28 00:59:17;;;;;;;1.63;1.53;;;6.20;98.00;;;;;;5111458;28;20484;-66
2021/10/28 01:01:48;;;;;;;1.20;1.00;;;6.10;98.00;;;;;;5111709;28;20485;-66
2021/10/28 01:04:15;;;;;;;2.07;1.33;;;6.30;98.00;;;;;;5110277;28;20482;-66
2021/10/28 01:06:44;;;;;;;1.87;1.30;;;6.30;98.00;;;;;;5111188;28;20972;-67
2021/10/28 01:09:14;;;;;;;3.10;1.83;;;6.30;98.00;;;;;;5111114;28;20451;-66
2021/10/28 01:11:43;;;;;;;2.83;1.80;;;6.10;98.00;;;;;;5115131;28;20547;-66
2021/10/28 01:14:10;;;;;;;1.33;1.27;;;6.10;98.00;;;;;;5115460;28;20465;-66
2021/10/28 01:16:37;;;;;;;1.40;1.30;;;6.00;98.00;;;;;;5115546;28;20494;-66
2021/10/28 01:19:04;;;;;;;1.60;1.40;;;6.10;98.00;;;;;;5115262;28;20481;-66
2021/10/28 01:21:33;;;;;;;1.30;1.17;;;6.10;98.00;;;;;;5115318;28;20458;-66
2021/10/28 01:24:00;;;;;;;4.17;1.43;;;6.10;98.00;;;;;;5115261;28;20498;-66
2021/10/28 01:26:28;;;;;;;1.20;1.20;;;6.00;98.00;;;;;;5115276;28;20457;-66
2021/10/28 01:28:57;;;;;;;1.20;1.00;;;6.00;98.00;;;;;;5113787;28;20943;-66
2021/10/28 01:31:26;;;;;;;1.37;1.30;;;5.90;98.00;;;;;;5115269;28;20506;-66
2021/10/28 01:33:56;;;;;;;1.30;1.20;;;5.60;98.00;;;;;;5114999;28;20518;-66
2021/10/28 01:36:24;;;;;;;1.30;1.20;;;5.50;98.00;;;;;;5115174;28;20450;-67
2021/10/28 01:38:56;;;;;;;1.47;1.23;;;5.40;98.00;;;;;;5113667;28;20496;-66
2021/10/28 01:41:26;;;;;;;2.03;1.43;;;5.20;98.00;;;;;;5115160;28;20478;-66
2021/10/28 01:43:55;;;;;;;1.87;1.50;;;5.30;98.00;;;;;;5114928;28;20501;-66
2021/10/28 01:46:22;;;;;;;2.13;1.10;;;5.40;98.00;;;;;;5115002;28;20461;-66
2021/10/28 01:48:49;;;;;;;1.20;1.10;;;5.20;98.00;;;;;;5114879;28;20448;-66
2021/10/28 01:51:21;;;;;;;1.30;1.17;;;5.10;98.00;;;;;;5114869;28;20486;-66
2021/10/28 01:53:48;;;;;;;1.83;1.40;;;5.30;98.00;;;;;;5114573;28;20536;-66
2021/10/28 01:56:16;;;;;;;1.33;1.10;;;5.40;98.00;;;;;;5115101;28;20577;-67
2021/10/28 01:58:48;;;;;;;2.60;1.57;;;5.30;98.00;;;;;;5114410;28;20525;-66
2021/10/28 02:01:15;;;;;;;1.30;1.20;;;5.20;98.00;;;;;;5115086;28;20890;-66
2021/10/28 02:03:42;;;;;;;2.03;1.33;;;5.30;98.00;;;;;;5114885;27;20462;-67
2021/10/28 02:06:10;;;;;;;1.20;1.10;;;5.30;98.00;;;;;;5114944;28;20454;-66
2021/10/28 02:08:37;;;;;;;1.40;1.30;;;5.10;98.00;;;;;;5113388;28;20455;-66
2021/10/28 02:11:04;;;;;;;1.20;1.10;;;5.00;98.00;;;;;;5113452;28;20869;-66
2021/10/28 02:13:32;;;;;;;1.20;1.10;;;5.00;98.00;;;;;;5114782;28;20500;-66
2021/10/28 02:16:00;;;;;;;1.30;1.17;;;5.00;98.00;;;;;;5114794;28;20482;-66
2021/10/28 02:18:29;;;;;;;4.00;1.40;;;4.90;98.00;;;;;;5114344;28;21113;-66
2021/10/28 02:20:59;;;;;;;2.33;1.77;;;5.00;98.00;;;;;;5114226;28;20458;-66
2021/10/28 02:23:26;;;;;;;1.20;1.20;;;5.10;98.00;;;;;;5114344;28;20539;-66
2021/10/28 02:25:54;;;;;;;1.20;1.00;;;5.10;98.00;;;;;;5114646;28;20466;-66
2021/10/28 02:28:21;;;;;;;1.40;1.13;;;5.30;98.00;;;;;;5113812;28;20867;-66
2021/10/28 02:30:51;;;;;;;1.20;1.10;;;5.40;98.00;;;;;;5113986;28;20932;-66
2021/10/28 02:33:18;;;;;;;1.20;1.10;;;5.30;98.00;;;;;;5114152;28;20459;-67
2021/10/28 02:35:45;;;;;;;1.80;1.43;;;5.50;98.00;;;;;;5114093;28;20447;-67
2021/10/28 02:38:12;;;;;;;1.60;1.20;;;5.60;98.00;;;;;;5113715;28;20515;-66
2021/10/28 02:40:41;;;;;;;1.30;1.07;;;5.60;98.00;;;;;;5113864;28;20505;-66
2021/10/28 02:43:08;;;;;;;2.03;1.10;;;5.50;98.00;;;;;;5113748;28;20453;-66
2021/10/28 02:45:35;;;;;;;2.03;1.60;;;5.60;98.00;;;;;;5113753;28;20518;-66
2021/10/28 02:48:04;;;;;;;1.20;1.00;;;5.60;98.00;;;;;;5113808;28;20446;-66
2021/10/28 02:50:31;;;;;;;1.47;1.10;;;5.70;98.00;;;;;;5113551;28;20494;-66
2021/10/28 02:52:58;;;;;;;1.60;1.40;;;5.60;98.00;;;;;;5113768;28;20488;-66
2021/10/28 02:55:25;;;;;;;2.07;1.53;;;5.70;98.00;;;;;;5113666;28;20493;-66
2021/10/28 02:57:53;;;;;;;2.50;1.43;;;5.80;98.00;;;;;;5112122;28;20462;-66
2021/10/28 03:00:20;;;;;;;1.20;1.20;;;5.80;98.00;;;;;;5112064;28;20498;-66
2021/10/28 03:02:49;;;;;;;1.30;1.10;;;5.80;98.00;;;;;;5112339;28;20454;-67
2021/10/28 03:05:18;;;;;;;1.20;1.00;;;5.80;98.00;;;;;;5112186;28;20459;-66
2021/10/28 03:07:45;;;;;;;1.50;1.50;;;5.90;98.00;;;;;;5113354;28;20490;-66
2021/10/28 03:10:14;;;;;;;2.10;1.13;;;5.90;98.00;;;;;;5113646;28;20535;-66
2021/10/28 03:12:43;;;;;;;4.33;1.63;;;6.00;98.00;;;;;;5113143;28;20508;-67
2021/10/28 03:15:12;;;;;;;2.70;1.10;;;6.20;98.00;;;;;;5112205;28;20451;-66
2021/10/28 03:17:53;;;;;;;1.40;1.40;;;6.30;98.00;;;;;;5112039;28;20478;-66
2021/10/28 03:25:50;;;;;;;1.20;1.00;;;6.50;98.00;;;;;;5081190;28;20462;-66
2021/10/28 03:28:19;;;;;;;1.47;1.40;;;6.60;98.00;;;;;;5113089;28;20848;-66
2021/10/28 03:30:47;;;;;;;1.20;1.10;;;6.70;98.00;;;;;;5112845;28;20458;-67
2021/10/28 03:33:17;;;;;;;1.20;0.97;;;6.50;98.00;;;;;;5112991;28;20454;-66
2021/10/28 03:35:47;;;;;;;1.50;1.30;;;6.50;98.00;;;;;;5111713;28;20964;-66
2021/10/28 03:38:21;;;;;;;1.77;1.43;;;6.40;98.00;;;;;;5112847;28;20508;-66
2021/10/28 03:41:13;;;;;;;1.20;1.10;;;6.40;98.00;;;;;;5112883;28;20458;-66
2021/10/28 04:00:42;;;;;;;2.57;2.07;;;6.10;98.00;;;;;;5112052;28;20549;-66
2021/10/28 04:20:15;;;;;;;1.30;1.20;;;5.80;98.00;;;;;;5048794;28;20500;-66
2021/10/28 04:30:54;;;;;;;2.23;1.77;;;5.50;98.00;;;;;;5111164;28;20518;-66
2021/10/28 04:33:21;;;;;;;1.50;1.20;;;5.30;98.00;;;;;;5112044;28;20460;-66
2021/10/28 04:35:48;;;;;;;1.30;1.20;;;5.20;98.00;;;;;;5112107;28;20459;-66
2021/10/28 04:38:17;;;;;;;1.20;1.00;;;5.20;98.00;;;;;;5111912;28;20452;-67
2021/10/28 04:40:45;;;;;;;3.33;1.23;;;5.20;98.00;;;;;;5111967;28;20454;-66
2021/10/28 04:43:12;;;;;;;1.30;1.20;;;5.20;98.00;;;;;;5111975;28;20487;-66
2021/10/28 04:45:39;;;;;;;1.33;1.23;;;5.10;98.00;;;;;;5114662;28;20864;-67
2021/10/28 04:48:09;;;;;;;1.50;1.00;;;5.20;98.00;;;;;;5116175;28;20524;-66
2021/10/28 04:50:36;;;;;;;1.20;1.13;;;5.20;98.00;;;;;;5116199;28;20457;-66
2021/10/28 04:53:03;;;;;;;3.10;1.90;;;5.20;98.00;;;;;;5116079;28;20844;-65
2021/10/28 04:55:30;;;;;;;1.20;1.00;;;5.20;98.00;;;;;;5116110;28;20934;-66
2021/10/28 04:57:59;;;;;;;2.90;1.70;;;5.20;98.00;;;;;;5116051;28;20549;-66
2021/10/28 05:00:27;;;;;;;3.27;1.73;;;5.10;98.00;;;;;;5115905;28;20491;-66
2021/10/28 05:02:54;;;;;;;1.60;1.43;;;4.90;98.00;;;;;;5116254;28;20462;-67
2021/10/28 05:05:21;;;;;;;1.30;1.20;;;4.80;98.00;;;;;;5116183;28;20491;-67
2021/10/28 05:07:48;;;;;;;1.30;1.20;;;4.80;98.00;;;;;;5115830;28;20467;-67
2021/10/28 05:10:16;;;;;;;1.30;1.10;;;5.00;98.00;;;;;;5115804;28;20515;-67
2021/10/28 05:12:43;;;;;;;1.80;1.60;;;5.00;98.00;;;;;;5115805;28;20949;-67
2021/10/28 05:15:11;;;;;;;2.40;1.37;;;4.90;98.00;;;;;;5115407;28;20493;-66
2021/10/28 05:17:40;;;;;;;1.30;1.10;;;4.80;98.00;;;;;;5115880;28;20456;-67
2021/10/28 05:20:07;;;;;;;1.67;1.40;;;4.90;98.00;;;;;;5115471;28;20486;-66
2021/10/28 05:22:34;;;;;;;1.63;1.37;;;5.00;98.00;;;;;;5115224;28;20464;-67
2021/10/28 05:25:01;;;;;;;1.20;1.00;;;5.10;98.00;;;;;;5115138;28;20449;-67
2021/10/28 05:27:31;;;;;;;1.40;1.27;;;5.20;98.00;;;;;;5115561;28;20864;-66
2021/10/28 05:29:58;;;;;;;2.27;1.17;;;5.20;98.00;;;;;;5115213;28;20458;-66
2021/10/28 05:32:28;;;;;;;1.20;1.10;;;5.20;98.00;;;;;;5115273;28;20455;-66
2021/10/28 05:34:59;;;;;;;3.93;2.23;;;5.30;98.00;;;;;;5115268;28;20504;-66
2021/10/28 05:37:26;;;;;;;1.97;1.27;;;5.30;98.00;;;;;;5115134;28;20465;-67
2021/10/28 05:39:55;;;;;;;2.17;1.60;;;5.20;98.00;;;;;;5114780;28;20492;-67
2021/10/28 05:42:22;;;;;;;1.90;1.30;;;5.10;98.00;;;;;;5115201;28;20532;-67
2021/10/28 05:44:49;;;;;;;1.87;1.40;;;5.10;98.00;;;;;;5115007;28;20456;-67
2021/10/28 05:47:16;;;;;;;1.20;1.10;;;5.00;98.00;;;;;;5115024;28;20820;-66
2021/10/28 05:49:45;;;;;;;1.50;1.43;;;5.20;98.00;;;;;;5114751;28;20476;-67
2021/10/28 05:52:12;;;;;;;1.63;1.30;;;5.20;98.00;;;;;;5115148;28;20453;-67
2021/10/28 05:54:40;;;;;;;1.20;1.03;;;5.10;98.00;;;;;;5114761;28;20449;-67
2021/10/28 05:57:07;;;;;;;2.70;1.37;;;5.10;98.00;;;;;;5113597;28;21136;-66
2021/10/28 05:59:35;;;;;;;1.50;1.40;;;5.00;98.00;;;;;;5113381;28;20513;-67
2021/10/28 06:02:02;;;;;;;1.43;1.23;;;5.10;98.00;;;;;;5113526;28;20968;-66
2021/10/28 06:04:30;;;;;;;1.70;1.13;;;5.00;98.00;;;;;;5114897;28;20481;-66
2021/10/28 06:06:58;;;;;;;1.77;1.70;;;5.00;98.00;;;;;;5114732;28;20451;-67
2021/10/28 06:09:25;;;;;;;1.53;1.43;;;4.90;98.00;;;;;;5112991;28;20504;-66
2021/10/28 06:11:54;;;;;;;1.20;1.17;;;5.00;98.00;;;;;;5114896;28;20472;-66
2021/10/28 06:14:24;;;;;;;1.63;1.20;;;4.90;98.00;;;;;;5114531;28;20454;-66
2021/10/28 06:16:55;;;;;;;1.93;1.10;;;4.90;98.00;;;;;;5114464;28;20461;-67
2021/10/28 06:19:22;;;;;;;2.37;1.30;;;4.80;98.00;;;;;;5114515;28;21007;-66
2021/10/28 06:21:49;;;;;;;1.40;1.20;;;4.80;98.00;;;;;;5114483;28;20450;-66
2021/10/28 06:24:18;;;;;;;3.10;1.60;;;4.90;98.00;;;;;;5113163;28;20534;-66
2021/10/28 06:26:45;;;;;;;1.20;1.00;;;4.90;98.00;;;;;;5114269;28;20463;-67
2021/10/28 06:29:12;;;;;;;1.20;1.10;;;4.90;98.00;;;;;;5113411;28;20479;-66
2021/10/28 06:31:41;;;;;;;1.60;1.30;;;5.00;98.00;;;;;;5114279;28;20532;-66
2021/10/28 06:34:17;;;;;;;1.30;1.10;;;5.20;98.00;;;;;;5114224;28;20458;-66
2021/10/28 06:36:49;;;;;;;1.40;1.40;;;5.40;98.00;;;;;;5090548;28;20462;-66
2021/10/28 06:39:18;;;;;;;1.70;1.27;;;5.70;98.00;;;;;;5088607;28;20481;-66
2021/10/28 06:41:46;;;;;;;1.20;1.00;;;5.60;98.00;;;;;;5099830;28;20482;-66
2021/10/28 06:44:13;;;;;;;1.53;1.30;;;5.70;98.00;;;;;;5101432;28;21062;-67
2021/10/28 06:46:41;;;;;;;1.67;1.10;;;5.90;98.00;;;;;;5092346;28;20452;-67
2021/10/28 06:49:08;;;;;;;1.60;1.47;;;5.90;98.00;;;;;;5109110;28;20469;-67
2021/10/28 06:51:38;;;;;;;1.20;1.00;;;5.80;98.00;;;;;;5101774;28;20458;-67
2021/10/28 06:54:09;;;;;;;3.10;2.30;;;5.90;98.00;;;;;;5109754;27;20445;-67
2021/10/28 07:02:31;;;;;;;1.57;1.33;;;6.10;98.00;;;;;;5096610;28;20469;-67
2021/10/28 07:04:58;;;;;;;1.20;1.00;;;6.10;98.00;;;;;;5094591;28;20487;-67
2021/10/28 07:07:26;;;;;;;1.30;1.10;;;6.10;98.00;;;;;;5100649;28;20480;-66
2021/10/28 07:10:01;;;;;;;1.50;1.50;;;6.10;98.00;;;;;;5100384;28;20523;-67
2021/10/28 07:12:41;;;;;;;1.40;1.30;;;6.20;98.00;;;;;;5092538;28;20533;-67
2021/10/28 07:15:14;;;;;;;1.40;1.10;;;6.30;98.00;;;;;;5108786;28;20967;-66
2021/10/28 07:17:57;;;;;;;1.30;1.10;;;6.40;98.00;;;;;;5073052;28;20459;-66
2021/10/28 07:23:39;;;;;;;1.20;1.10;;;6.30;98.00;;;;;;5103009;28;20477;-66
2021/10/28 07:32:13;;;;;;;1.70;1.40;;;6.10;98.00;;;;;;5087752;28;20971;-67
2021/10/28 07:34:58;;;;;;;1.73;1.37;;;6.00;98.00;;;;;;5102806;28;20484;-67
2021/10/28 07:59:36;;;;;;;2.03;1.80;;;6.90;98.00;;;;;;5091006;28;20503;-67
2021/10/28 08:16:10;;;;;;;1.40;1.30;;;9.90;98.00;;;;;;5099755;28;20496;-68
2021/10/28 08:21:39;;;;;;;2.53;1.83;;;10.00;98.00;;;;;;5088208;28;20463;-68
2021/10/28 08:24:19;;;;;;;2.57;1.53;;;10.30;98.00;;;;;;5099514;28;20447;-67
2021/10/28 08:29:33;;;;;;;2.27;1.70;;;9.70;98.00;;;;;;5082523;28;20442;-67
2021/10/28 08:32:01;;;;;;;2.50;1.47;;;9.50;98.00;;;;;;5103547;28;20522;-67
2021/10/28 08:34:32;;;;;;;2.37;1.60;;;9.40;98.00;;;;;;5090222;28;20491;-66
2021/10/28 08:37:07;;;;;;;1.50;1.47;;;9.20;98.00;;;;;;5106443;28;20456;-66
2021/10/28 08:39:37;;;;;;;1.80;1.70;;;9.10;98.00;;;;;;5091486;28;20504;-67
2021/10/28 08:42:08;;;;;;;1.30;1.27;;;9.00;98.00;;;;;;5095396;28;20487;-67
2021/10/28 08:44:39;;;;;;;1.70;1.60;;;9.10;98.00;;;;;;5091929;28;21372;-67
2021/10/28 08:47:09;;;;;;;2.80;1.73;;;9.10;98.00;;;;;;5098589;28;20458;-67
2021/10/28 08:49:42;;;;;;;2.07;1.60;;;9.20;98.00;;;;;;5103987;28;20462;-66
2021/10/28 08:52:29;;;;;;;2.07;1.23;;;9.20;98.00;;;;;;5094901;28;20555;-67
2021/10/28 08:55:04;;;;;;;1.30;1.30;;;9.30;98.00;;;;;;5090835;28;20451;-69
2021/10/28 08:57:56;;;;;;;1.73;1.50;;;9.40;98.00;;;;;;5097270;28;20461;-67
2021/10/28 09:26:52;;;;;;;4.27;2.53;;;13.00;98.00;;;;;;5036248;28;20468;-67
2021/10/28 09:29:32;;;;;;;3.77;2.13;;;12.80;98.00;;;;;;5039506;28;20507;-68
2021/10/28 09:32:07;;;;;;;2.90;1.60;;;12.80;98.00;;;;;;5085484;28;20819;-67
2021/10/28 09:34:54;;;;;;;3.00;1.67;;;13.00;98.00;;;;;;5111133;28;20452;-67
2021/10/28 09:45:51;;;;;;;2.03;1.30;;;12.90;98.00;;;;;;5106801;28;20821;-66
2021/10/28 09:51:16;;;;;;;2.90;1.83;;;12.90;98.00;;;;;;5094741;28;20426;-66
2021/10/28 09:54:01;;;;;;;2.50;2.17;;;12.90;98.00;;;;;;5101646;28;20513;-65
2021/10/28 09:59:25;;;;;;;3.60;1.87;;;12.80;98.00;;;;;;5100619;28;20463;-65
2021/10/28 10:02:03;;;;;;;2.70;2.17;;;13.00;98.00;;;;;;5101418;28;20456;-64
2021/10/28 10:04:31;;;;;;;4.40;2.90;;;13.00;98.00;;;;;;5101814;28;20477;-64
2021/10/28 10:06:59;;;;;;;3.30;2.27;;;12.90;98.00;;;;;;5083618;28;20519;-66
2021/10/28 10:09:27;;;;;;;3.73;1.87;;;12.90;98.00;;;;;;5094203;28;20825;-65
2021/10/28 10:11:56;;;;;;;1.90;1.87;;;13.00;98.00;;;;;;5094176;28;20480;-65
2021/10/28 10:14:25;;;;;;;2.43;1.80;;;13.10;98.00;;;;;;5094092;28;20508;-65
2021/10/28 10:16:54;;;;;;;3.30;2.03;;;13.10;98.00;;;;;;5093091;28;21015;-65
2021/10/28 10:19:30;;;;;;;5.10;2.13;;;13.20;98.00;;;;;;5094024;28;20452;-65
2021/10/28 10:22:03;;;;;;;4.00;1.80;;;13.40;98.00;;;;;;5093920;28;20470;-65
2021/10/28 10:24:45;;;;;;;3.40;2.20;;;13.40;98.00;;;;;;5093909;28;20458;-65
2021/10/28 11:21:34;;;;;;;2.00;1.90;;;17.00;98.00;;;;;;5055920;28;21060;-66
2021/10/28 11:25:32;;;;;;;1.80;1.43;;;17.20;97.60;;;;;;5092623;28;20546;-66
2021/10/28 11:30:20;;;;;;;3.00;2.20;;;17.70;96.10;;;;;;5092701;28;20567;-66
2021/10/28 12:44:15;;;;;;;1.70;1.50;;;17.40;97.20;;;;;;5091375;28;20452;-64
2021/10/28 12:53:07;;;;;;;3.10;1.83;;;17.60;96.40;;;;;;5091299;28;20586;-65
2021/10/28 13:07:01;;;;;;;1.63;1.47;;;17.70;95.20;;;;;;5094190;28;20762;-65
2021/10/28 13:48:16;;;;;;;2.77;1.57;;;16.80;95.90;;;;;;5094974;28;20442;-64
2021/10/28 13:50:57;;;;;;;1.30;1.17;;;17.00;96.50;;;;;;5094471;28;20491;-64
2021/10/28 13:56:21;;;;;;;2.70;1.90;;;18.30;93.00;;;;;;5094663;28;20444;-64
2021/10/28 14:21:25;;;;;;;1.30;1.20;;;21.80;88.30;;;;;;5093807;28;20472;-67
2021/10/28 14:38:14;;;;;;;1.50;1.43;;;22.90;84.40;;;;;;5093805;28;20468;-67
2021/10/28 15:03:17;;;;;;;1.60;1.50;;;23.10;83.10;;;;;;5093608;28;21263;-67
2021/10/28 15:30:55;;;;;;;1.83;1.53;;;20.70;88.00;;;;;;5092141;28;20444;-67
2021/10/28 15:36:11;;;;;;;1.73;1.73;;;19.00;93.20;;;;;;5092599;28;20780;-67
2021/10/28 15:38:47;;;;;;;2.80;1.70;;;18.10;95.50;;;;;;5091322;28;20448;-67
2021/10/28 15:41:33;;;;;;;1.90;1.60;;;17.30;97.80;;;;;;5092482;28;20484;-67
2021/10/28 16:22:30;;;;;;;1.40;1.30;;;12.20;98.00;;;;;;5092041;28;20853;-64
2021/10/28 16:24:57;;;;;;;1.90;1.60;;;11.90;98.00;;;;;;5091421;28;20466;-65
2021/10/28 16:27:24;;;;;;;2.47;1.90;;;12.00;98.00;;;;;;5091806;28;20464;-65
2021/10/28 16:29:51;;;;;;;2.33;1.50;;;12.00;98.00;;;;;;5091627;28;20458;-65
2021/10/28 16:32:19;;;;;;;3.53;1.20;;;11.80;98.00;;;;;;5091659;28;20459;-64
2021/10/28 16:34:47;;;;;;;1.93;1.50;;;11.70;98.00;;;;;;5091536;28;20460;-64
2021/10/28 16:37:14;;;;;;;1.50;1.40;;;11.50;98.00;;;;;;5091732;28;20614;-65
2021/10/28 16:39:41;;;;;;;4.53;2.20;;;11.50;98.00;;;;;;5091344;28;20483;-64
2021/10/28 16:42:09;;;;;;;1.30;1.30;;;11.40;98.00;;;;;;5095155;28;20580;-64
2021/10/28 16:44:41;;;;;;;1.53;1.30;;;11.30;98.00;;;;;;5095958;28;20452;-64
2021/10/28 16:47:10;;;;;;;2.13;1.77;;;11.40;98.00;;;;;;5094676;28;20463;-65
2021/10/28 16:49:41;;;;;;;1.40;1.10;;;11.40;98.00;;;;;;5095575;28;20507;-64
2021/10/28 16:52:08;;;;;;;1.20;1.10;;;11.40;98.00;;;;;;5095419;28;20453;-64
2021/10/28 16:54:36;;;;;;;1.40;1.20;;;11.20;98.00;;;;;;5095453;28;20455;-64
2021/10/28 16:57:03;;;;;;;1.77;1.60;;;11.00;98.00;;;;;;5095519;28;20472;-65
2021/10/28 16:59:32;;;;;;;1.70;1.37;;;10.90;98.00;;;;;;5095390;28;20521;-65
2021/10/28 17:01:59;;;;;;;1.20;1.20;;;10.90;98.00;;;;;;5095438;28;20471;-65
2021/10/28 17:04:26;;;;;;;1.60;1.43;;;10.80;98.00;;;;;;5095526;28;20453;-65
2021/10/28 17:06:55;;;;;;;1.70;1.27;;;10.70;98.00;;;;;;5095264;28;20458;-64
2021/10/28 17:09:22;;;;;;;1.20;1.10;;;10.70;98.00;;;;;;5095522;28;20444;-65
2021/10/28 17:11:50;;;;;;;1.20;1.00;;;10.60;98.00;;;;;;5095496;28;20518;-64
2021/10/28 17:14:17;;;;;;;1.47;1.27;;;10.40;98.00;;;;;;5095211;28;20487;-64
2021/10/28 17:16:46;;;;;;;1.20;1.00;;;10.30;98.00;;;;;;5095491;28;20867;-64
2021/10/28 17:19:14;;;;;;;1.53;1.43;;;10.20;98.00;;;;;;5094057;28;20462;-64
2021/10/28 17:21:42;;;;;;;1.30;1.10;;;10.20;98.00;;;;;;5095305;28;21004;-64
2021/10/28 17:24:21;;;;;;;4.17;2.33;;;10.20;98.00;;;;;;5094958;28;20466;-64
2021/10/28 17:26:48;;;;;;;1.20;1.10;;;10.00;98.00;;;;;;5095257;28;20505;-64
2021/10/28 17:29:16;;;;;;;1.20;1.10;;;10.00;98.00;;;;;;5095095;28;20456;-65
2021/10/28 17:31:44;;;;;;;3.93;1.27;;;10.10;98.00;;;;;;5095222;28;20487;-64
2021/10/28 17:34:11;;;;;;;1.30;1.10;;;10.10;98.00;;;;;;5094961;28;20457;-65
2021/10/28 17:36:38;;;;;;;1.20;1.20;;;10.20;98.00;;;;;;5095184;28;20937;-65
2021/10/28 17:39:06;;;;;;;1.90;1.30;;;10.30;98.00;;;;;;5093684;28;20462;-65
2021/10/28 17:41:47;;;;;;;1.20;1.00;;;10.30;98.00;;;;;;5094795;28;20971;-65
2021/10/28 17:44:14;;;;;;;2.60;1.93;;;10.10;98.00;;;;;;5094583;28;20793;-65
2021/10/28 17:46:42;;;;;;;1.20;1.20;;;10.00;98.00;;;;;;5094929;28;20500;-65
2021/10/28 17:49:09;;;;;;;1.20;1.10;;;9.90;98.00;;;;;;5094832;28;20533;-65
2021/10/28 17:51:38;;;;;;;2.33;1.43;;;9.70;98.00;;;;;;5094522;28;20478;-65
2021/10/28 17:54:09;;;;;;;2.57;1.40;;;9.60;98.00;;;;;;5094475;28;20972;-65
2021/10/28 17:56:39;;;;;;;2.03;1.37;;;9.60;98.00;;;;;;5093329;28;20463;-65
2021/10/28 17:59:07;;;;;;;1.47;1.27;;;9.60;98.00;;;;;;5094130;28;20558;-64
2021/10/28 18:01:36;;;;;;;1.40;1.30;;;9.70;98.00;;;;;;5094241;28;20517;-64
2021/10/28 18:04:03;;;;;;;1.60;1.20;;;9.70;98.00;;;;;;5094142;28;20453;-64
2021/10/28 18:06:31;;;;;;;1.80;1.13;;;9.80;98.00;;;;;;5094418;28;20520;-64
2021/10/28 18:09:01;;;;;;;1.40;1.23;;;9.80;98.00;;;;;;5094373;28;20455;-64
2021/10/28 18:11:29;;;;;;;1.70;1.40;;;9.60;98.00;;;;;;5094135;28;20455;-64
2021/10/28 18:13:59;;;;;;;5.50;1.77;;;9.60;98.00;;;;;;5094452;28;20449;-64
2021/10/28 18:16:27;;;;;;;1.30;1.20;;;9.50;98.00;;;;;;5094380;28;20545;-64
2021/10/28 18:18:55;;;;;;;1.37;1.33;;;9.40;98.00;;;;;;5094042;28;20452;-64
2021/10/28 18:21:24;;;;;;;3.07;1.63;;;9.20;98.00;;;;;;5094023;28;20482;-64
2021/10/28 18:23:51;;;;;;;1.87;1.33;;;9.00;98.00;;;;;;5094175;28;20529;-64
2021/10/28 18:26:20;;;;;;;1.50;1.30;;;9.00;98.00;;;;;;5094095;28;20505;-64
2021/10/28 18:28:48;;;;;;;1.20;1.10;;;8.90;98.00;;;;;;5094093;28;20791;-65
2021/10/28 18:31:16;;;;;;;1.73;1.40;;;8.80;98.00;;;;;;5093655;28;20454;-64
2021/10/28 18:33:45;;;;;;;1.37;1.33;;;8.90;98.00;;;;;;5094061;28;20504;-64
2021/10/28 18:36:14;;;;;;;5.70;1.53;;;8.90;98.00;;;;;;5093187;28;21071;-64
2021/10/28 18:38:44;;;;;;;2.33;1.57;;;8.80;98.00;;;;;;5093075;28;21004;-64
2021/10/28 18:41:15;;;;;;;1.20;1.00;;;8.70;98.00;;;;;;5092958;28;20473;-64
2021/10/28 18:43:42;;;;;;;1.20;1.10;;;8.60;98.00;;;;;;5093611;28;20507;-63
2021/10/28 18:46:10;;;;;;;1.20;1.00;;;8.50;98.00;;;;;;5093377;28;20846;-63
2021/10/28 18:48:39;;;;;;;1.60;1.23;;;8.60;98.00;;;;;;5093924;28;20447;-63
2021/10/28 18:51:06;;;;;;;1.40;1.20;;;8.60;98.00;;;;;;5093420;28;20458;-63
2021/10/28 18:53:39;;;;;;;1.20;1.00;;;8.50;98.00;;;;;;5093661;28;20462;-64
2021/10/28 18:56:07;;;;;;;2.53;1.40;;;8.50;98.00;;;;;;5093154;28;20465;-63
2021/10/28 18:58:35;;;;;;;2.40;1.40;;;8.50;98.00;;;;;;5093609;28;20462;-63
2021/10/28 19:01:02;;;;;;;1.20;1.03;;;8.50;98.00;;;;;;5093405;28;20505;-63
2021/10/28 19:03:29;;;;;;;2.03;1.60;;;8.60;98.00;;;;;;5093398;28;20463;-63
2021/10/28 19:05:58;;;;;;;2.37;1.63;;;8.70;98.00;;;;;;5093453;28;20455;-63
2021/10/28 19:08:28;;;;;;;1.50;1.30;;;8.60;98.00;;;;;;5093534;28;20882;-64
2021/10/28 19:10:55;;;;;;;1.90;1.20;;;8.50;98.00;;;;;;5092921;28;20451;-63
2021/10/28 19:13:24;;;;;;;1.73;1.30;;;8.30;98.00;;;;;;5093165;28;20457;-63
2021/10/28 19:15:52;;;;;;;1.30;1.10;;;8.20;98.00;;;;;;5092164;28;20458;-63
2021/10/28 19:18:19;;;;;;;1.50;1.37;;;8.10;98.00;;;;;;5093121;28;20519;-63
2021/10/28 19:20:48;;;;;;;2.17;1.33;;;8.30;98.00;;;;;;5092636;28;20469;-63
2021/10/28 19:23:17;;;;;;;1.93;1.20;;;8.30;98.00;;;;;;5092972;28;20514;-63
2021/10/28 19:25:44;;;;;;;1.60;1.40;;;8.20;98.00;;;;;;5092762;28;20462;-63
2021/10/28 19:28:12;;;;;;;1.20;1.20;;;7.90;98.00;;;;;;5092814;28;20485;-63
2021/10/28 19:30:41;;;;;;;1.90;1.50;;;7.80;98.00;;;;;;5092691;28;20524;-63
2021/10/28 19:33:12;;;;;;;1.20;1.00;;;7.70;98.00;;;;;;5092717;28;20451;-63
2021/10/28 19:35:42;;;;;;;1.27;1.23;;;7.80;98.00;;;;;;5092346;28;20997;-63
2021/10/28 19:38:18;;;;;;;1.47;1.43;;;7.80;98.00;;;;;;5092360;28;20970;-63
2021/10/28 19:41:12;;;;;;;1.50;1.40;;;7.70;98.00;;;;;;5092611;28;20455;-63
2021/10/28 19:46:24;;;;;;;2.80;2.60;;;7.90;98.00;;;;;;5091690;28;20472;-63
2021/10/28 19:48:51;;;;;;;1.30;1.20;;;7.90;98.00;;;;;;5091826;28;20508;-62
2021/10/28 19:51:19;;;;;;;1.50;1.40;;;8.00;98.00;;;;;;5093954;28;20450;-62
2021/10/28 19:53:48;;;;;;;3.83;2.13;;;7.80;98.00;;;;;;5100280;28;20499;-63
2021/10/28 19:56:22;;;;;;;1.40;1.27;;;7.70;98.00;;;;;;5100227;28;20994;-63
2021/10/28 19:58:55;;;;;;;1.97;1.37;;;7.80;98.00;;;;;;5102185;28;20461;-64
2021/10/28 20:01:29;;;;;;;1.47;1.20;;;7.80;98.00;;;;;;5097297;28;20957;-64
2021/10/28 20:04:30;;;;;;;1.50;1.40;;;7.60;98.00;;;;;;5100683;28;21263;-64
2021/10/28 20:20:52;;;;;;;1.40;1.23;;;7.40;98.00;;;;;;5112581;28;20529;-63
2021/10/28 20:23:19;;;;;;;1.93;1.77;;;7.30;98.00;;;;;;5112645;28;20490;-63
2021/10/28 20:25:46;;;;;;;1.90;1.60;;;7.20;98.00;;;;;;5112463;28;20453;-63
2021/10/28 20:28:14;;;;;;;1.90;1.20;;;7.20;98.00;;;;;;5112394;28;20450;-63
2021/10/28 20:30:51;;;;;;;1.83;1.57;;;7.10;98.00;;;;;;5112239;28;20520;-63
2021/10/28 20:33:19;;;;;;;1.40;1.30;;;7.00;98.00;;;;;;5112097;28;20442;-63
2021/10/28 20:36:04;;;;;;;1.30;1.27;;;7.10;98.00;;;;;;5112248;28;20462;-63
2021/10/28 20:38:32;;;;;;;1.30;1.20;;;7.20;98.00;;;;;;5112128;28;21051;-63
2021/10/28 20:40:59;;;;;;;3.13;1.50;;;7.20;98.00;;;;;;5112053;28;20463;-63
2021/10/28 20:43:27;;;;;;;1.20;1.10;;;7.20;98.00;;;;;;5111871;28;20484;-63
2021/10/28 20:45:55;;;;;;;1.20;1.10;;;7.20;98.00;;;;;;5110909;28;20457;-63
2021/10/28 20:48:21;;;;;;;1.30;1.27;;;7.20;98.00;;;;;;5111745;28;20521;-62
2021/10/28 20:50:48;;;;;;;2.30;1.77;;;7.20;98.00;;;;;;5110993;28;20954;-63
2021/10/28 20:53:16;;;;;;;1.70;1.40;;;7.00;98.00;;;;;;5112282;28;20517;-63
2021/10/28 20:55:43;;;;;;;1.30;1.20;;;6.90;98.00;;;;;;5111907;28;20475;-63
2021/10/28 20:58:10;;;;;;;1.80;1.40;;;7.00;98.00;;;;;;5111962;28;20524;-63
2021/10/28 21:00:38;;;;;;;1.50;1.50;;;7.10;98.00;;;;;;5111675;28;20498;-63
2021/10/28 21:03:06;;;;;;;1.50;1.37;;;7.10;98.00;;;;;;5110520;28;20479;-63
2021/10/28 21:05:33;;;;;;;2.23;1.57;;;7.00;98.00;;;;;;5112046;28;20464;-63
2021/10/28 21:08:00;;;;;;;1.50;1.20;;;6.90;98.00;;;;;;5112006;28;20453;-63
2021/10/28 21:10:29;;;;;;;1.57;1.20;;;6.90;98.00;;;;;;5111809;28;20451;-63
2021/10/28 21:12:56;;;;;;;4.27;1.57;;;7.00;98.00;;;;;;5111938;28;20542;-63
2021/10/28 21:15:24;;;;;;;1.47;1.30;;;6.90;98.00;;;;;;5111776;28;20503;-63